createdAt,value
2022-12-15T00:02:41.129Z,92.44
2022-12-15T00:05:26.437Z,92.75
2022-12-15T00:08:11.878Z,92.93
2022-12-15T00:10:57.484Z,93.19
2022-12-15T00:13:42.945Z,93.09
2022-12-15T00:16:28.042Z,93.41
2022-12-15T00:19:13.167Z,93.65
2022-12-15T00:21:58.006Z,93.66
2022-12-15T00:24:43.105Z,93.33
2022-12-15T00:27:28.101Z,93.20
2022-12-15T00:30:12.947Z,92.92
2022-12-15T00:32:58.080Z,92.15
2022-12-15T00:35:43.021Z,91.63
2022-12-15T00:38:36.305Z,91.11
2022-12-15T00:41:08.817Z,90.28
2022-12-15T00:43:39.440Z,89.91
2022-12-15T00:46:25.270Z,89.53
2022-12-15T00:48:51.987Z,89.47
2022-12-15T00:51:21.178Z,88.36
2022-12-15T00:54:06.430Z,87.86
2022-12-15T00:56:51.271Z,87.42
2022-12-15T00:59:36.417Z,87.82
2022-12-15T01:02:27.152Z,87.49
2022-12-15T01:05:12.463Z,87.29
2022-12-15T01:07:58.257Z,86.90
2022-12-15T01:10:43.566Z,86.72
2022-12-15T01:13:31.936Z,86.86
2022-12-15T01:16:20.497Z,86.71
2022-12-15T01:19:05.346Z,87.07
2022-12-15T01:21:35.582Z,87.19
2022-12-15T01:24:05.792Z,87.46
2022-12-15T01:26:32.303Z,87.62
2022-12-15T01:28:58.834Z,88.22
2022-12-15T01:31:25.866Z,88.27
2022-12-15T01:33:55.609Z,88.43
2022-12-15T01:36:22.112Z,88.84
2022-12-15T01:38:53.817Z,88.82
2022-12-15T01:41:20.974Z,88.88
2022-12-15T01:43:50.382Z,88.97
2022-12-15T01:46:19.919Z,89.37
2022-12-15T01:48:58.442Z,89.42
2022-12-15T01:51:32.954Z,89.29
2022-12-15T01:53:59.393Z,89.17
2022-12-15T01:56:30.118Z,88.92
2022-12-15T01:59:03.262Z,88.39
2022-12-15T02:01:30.027Z,88.34
2022-12-15T02:03:56.886Z,87.40
2022-12-15T02:06:25.623Z,86.96
2022-12-15T02:08:55.292Z,86.93
2022-12-15T02:11:43.658Z,86.21
2022-12-15T02:14:12.398Z,86.06
2022-12-15T02:17:01.220Z,84.38
2022-12-15T02:19:42.898Z,82.86
2022-12-15T02:22:31.020Z,82.82
2022-12-15T02:25:34.500Z,81.91
2022-12-15T02:28:10.318Z,82.07
2022-12-15T02:31:13.778Z,82.31
2022-12-15T02:33:52.914Z,81.90
2022-12-15T02:36:29.099Z,81.89
2022-12-15T02:38:55.570Z,82.20
2022-12-15T02:41:31.128Z,82.48
2022-12-15T02:43:57.771Z,82.77
2022-12-15T02:46:37.493Z,82.25
2022-12-15T02:49:30.885Z,82.23
2022-12-15T02:52:07.115Z,82.62
2022-12-15T02:55:00.893Z,82.57
2022-12-15T02:57:33.338Z,82.22
2022-12-15T03:00:10.517Z,81.62
2022-12-15T03:02:44.193Z,81.76
2022-12-15T03:05:13.110Z,81.65
2022-12-15T03:07:41.430Z,81.34
2022-12-15T03:10:10.264Z,81.00
2022-12-15T03:12:36.705Z,81.40
2022-12-15T03:15:03.827Z,81.01
2022-12-15T03:17:30.292Z,80.49
2022-12-15T03:19:56.793Z,80.38
2022-12-15T03:22:23.292Z,80.41
2022-12-15T03:24:51.355Z,80.68
2022-12-15T03:27:17.820Z,80.25
2022-12-15T03:29:44.283Z,79.75
2022-12-15T03:32:13.326Z,79.39
2022-12-15T03:34:39.804Z,79.01
2022-12-15T03:37:06.395Z,79.67
2022-12-15T03:39:32.890Z,79.65
2022-12-15T03:41:59.441Z,79.89
2022-12-15T03:44:26.039Z,79.72
2022-12-15T03:46:52.560Z,79.92
2022-12-15T03:49:19.061Z,80.33
2022-12-15T03:51:45.520Z,80.15
2022-12-15T03:54:15.940Z,80.25
2022-12-15T03:56:42.398Z,80.39
2022-12-15T03:59:11.420Z,81.15
2022-12-15T04:01:38.043Z,81.24
2022-12-15T04:04:05.263Z,81.16
2022-12-15T04:06:31.899Z,81.31
2022-12-15T04:08:58.586Z,81.63
2022-12-15T04:11:25.096Z,82.00
2022-12-15T04:13:51.607Z,82.21
2022-12-15T04:16:20.418Z,82.62
2022-12-15T04:19:07.907Z,83.30
2022-12-15T04:21:34.388Z,83.51
2022-12-15T04:24:19.391Z,83.74
2022-12-15T04:27:04.310Z,83.66
2022-12-15T04:29:49.450Z,83.65
2022-12-15T04:32:34.198Z,84.03
2022-12-15T04:35:19.652Z,84.55
2022-12-15T04:38:04.774Z,84.81
2022-12-15T04:40:49.989Z,85.23
2022-12-15T04:43:34.820Z,85.37
2022-12-15T04:46:19.995Z,85.60
2022-12-15T04:49:04.683Z,85.75
2022-12-15T04:51:51.591Z,86.04
2022-12-15T04:54:36.492Z,86.36
2022-12-15T04:57:21.594Z,87.20
2022-12-15T05:00:06.437Z,87.32
2022-12-15T05:02:51.717Z,87.91
2022-12-15T05:05:36.925Z,88.39
2022-12-15T05:08:21.666Z,89.02
2022-12-15T05:11:06.433Z,89.33
2022-12-15T05:13:51.256Z,89.80
2022-12-15T05:16:35.998Z,90.79
2022-12-15T05:19:20.873Z,91.02
2022-12-15T05:22:05.720Z,91.49
2022-12-15T05:24:50.563Z,91.85
2022-12-15T05:27:35.229Z,92.18
2022-12-15T05:30:19.939Z,92.19
2022-12-15T05:32:46.420Z,92.76
2022-12-15T05:35:16.439Z,92.95
2022-12-15T05:37:42.867Z,93.18
2022-12-15T05:40:09.858Z,93.45
2022-12-15T05:42:36.304Z,93.50
2022-12-15T05:45:02.843Z,94.49
2022-12-15T05:47:29.276Z,94.15
2022-12-15T05:49:55.696Z,95.29
2022-12-15T05:52:22.376Z,95.68
2022-12-15T05:54:48.819Z,95.60
2022-12-15T05:57:15.284Z,95.87
2022-12-15T05:59:42.524Z,95.78
2022-12-15T06:02:09.080Z,96.19
2022-12-15T06:04:35.621Z,95.58
2022-12-15T06:07:02.171Z,95.66
2022-12-15T06:09:29.042Z,95.65
2022-12-15T06:11:55.492Z,96.30
2022-12-15T06:14:21.965Z,96.36
2022-12-15T06:16:50.983Z,97.00
2022-12-15T06:19:18.676Z,97.16
2022-12-15T06:21:45.104Z,97.68
2022-12-15T06:24:11.576Z,97.63
2022-12-15T06:26:39.836Z,98.10
2022-12-15T06:29:12.310Z,98.44
2022-12-15T06:31:40.307Z,99.05
2022-12-15T06:34:09.012Z,99.42
2022-12-15T06:36:36.043Z,99.62
2022-12-15T06:39:04.747Z,100.00
2022-12-15T06:41:31.666Z,99.94
2022-12-15T06:44:01.416Z,100.00
2022-12-15T06:46:29.500Z,100.00
2022-12-15T06:48:56.682Z,100.00
2022-12-15T06:51:23.610Z,100.00
2022-12-15T06:53:52.541Z,100.00
2022-12-15T06:56:34.856Z,100.00
2022-12-15T06:59:03.819Z,100.00
2022-12-15T07:01:31.069Z,100.00
2022-12-15T07:04:00.106Z,100.00
2022-12-15T07:06:28.477Z,100.00
2022-12-15T07:08:56.719Z,100.00
2022-12-15T07:11:23.785Z,100.00
2022-12-15T07:13:52.244Z,100.00
2022-12-15T07:16:19.380Z,100.00
2022-12-15T07:18:46.052Z,100.00
2022-12-15T07:21:12.799Z,100.00
2022-12-15T07:23:53.930Z,100.00
2022-12-15T07:26:21.027Z,100.00
2022-12-15T07:28:47.662Z,100.00
2022-12-15T07:31:15.456Z,100.00
2022-12-15T07:33:42.680Z,100.00
2022-12-15T07:36:09.625Z,100.00
2022-12-15T07:38:36.689Z,100.00
2022-12-15T07:41:05.645Z,100.00
2022-12-15T07:43:32.834Z,100.00
2022-12-15T07:46:00.333Z,100.00
2022-12-15T07:48:27.664Z,100.00
2022-12-15T07:51:02.941Z,100.00
2022-12-15T07:53:35.315Z,100.00
2022-12-15T07:56:08.977Z,100.00
2022-12-15T07:58:36.909Z,100.00
2022-12-15T08:01:10.075Z,100.00
2022-12-15T08:03:37.686Z,100.00
2022-12-15T08:06:05.872Z,100.00
2022-12-15T08:08:34.104Z,100.00
2022-12-15T08:11:09.273Z,100.00
2022-12-15T08:16:23.793Z,100.00
2022-12-15T08:18:50.468Z,100.00
2022-12-15T08:21:17.171Z,100.00
2022-12-15T08:23:43.744Z,100.00
2022-12-15T08:26:13.110Z,100.00
2022-12-15T08:28:40.951Z,100.00
2022-12-15T08:31:12.934Z,100.00
2022-12-15T08:33:40.594Z,100.00
2022-12-15T08:36:09.779Z,100.00
2022-12-15T08:38:38.689Z,100.00
2022-12-15T08:41:14.100Z,100.00
2022-12-15T08:43:47.646Z,100.00
2022-12-15T08:46:19.956Z,100.00
2022-12-15T08:48:46.902Z,100.00
2022-12-15T08:51:16.719Z,100.00
2022-12-15T08:53:43.403Z,100.00
2022-12-15T08:56:18.178Z,100.00
2022-12-15T08:58:46.595Z,100.00
2022-12-15T09:01:22.509Z,100.00
2022-12-15T09:03:51.370Z,100.00
2022-12-15T09:06:23.656Z,100.00
2022-12-15T09:08:50.716Z,100.00
2022-12-15T09:11:17.893Z,100.00
2022-12-15T09:13:44.616Z,100.00
2022-12-15T09:16:14.036Z,100.00
2022-12-15T09:18:46.668Z,100.00
2022-12-15T09:21:14.134Z,100.00
2022-12-15T09:23:41.620Z,100.00
2022-12-15T09:26:11.729Z,100.00
2022-12-15T09:28:38.696Z,100.00
2022-12-15T09:31:11.362Z,100.00
2022-12-15T09:33:39.351Z,100.00
2022-12-15T09:36:06.456Z,100.00
2022-12-15T09:38:40.442Z,100.00
2022-12-15T09:41:28.334Z,100.00
2022-12-15T09:43:55.907Z,100.00
2022-12-15T09:46:53.281Z,100.00
2022-12-15T09:49:24.753Z,100.00
2022-12-15T09:51:58.259Z,100.00
2022-12-15T09:54:31.315Z,100.00
2022-12-15T09:57:04.617Z,100.00
2022-12-15T09:59:39.708Z,100.00
2022-12-15T10:02:21.176Z,100.00
2022-12-15T10:04:53.548Z,100.00
2022-12-15T10:07:35.392Z,100.00
2022-12-15T10:10:32.425Z,100.00
2022-12-15T10:13:04.392Z,100.00
2022-12-15T10:15:45.631Z,100.00
2022-12-15T10:18:24.895Z,100.00
2022-12-15T10:21:02.088Z,100.00
2022-12-15T10:23:29.212Z,100.00
2022-12-15T10:26:01.353Z,100.00
2022-12-15T10:28:46.278Z,100.00
2022-12-15T10:31:42.115Z,100.00
2022-12-15T10:34:30.856Z,100.00
2022-12-15T10:36:58.106Z,100.00
2022-12-15T10:39:38.266Z,100.00
2022-12-15T10:42:22.539Z,100.00
2022-12-15T10:44:52.247Z,100.00
2022-12-15T10:47:26.031Z,100.00
2022-12-15T10:49:54.226Z,100.00
2022-12-15T10:52:27.528Z,100.00
2022-12-15T10:54:55.078Z,100.00
2022-12-15T10:57:27.750Z,100.00
2022-12-15T11:00:27.827Z,100.00
2022-12-15T11:02:54.756Z,100.00
2022-12-15T11:05:21.932Z,100.00
2022-12-15T11:07:49.824Z,100.00
2022-12-15T11:10:21.272Z,100.00
2022-12-15T11:13:15.686Z,100.00
2022-12-15T11:15:53.330Z,100.00
2022-12-15T11:18:35.164Z,100.00
2022-12-15T11:21:12.231Z,100.00
2022-12-15T11:24:13.947Z,100.00
2022-12-15T11:26:46.862Z,100.00
2022-12-15T11:29:50.304Z,100.00
2022-12-15T11:32:20.653Z,100.00
2022-12-15T11:34:47.955Z,100.00
2022-12-15T11:37:38.382Z,100.00
2022-12-15T11:40:33.793Z,100.00
2022-12-15T11:43:12.360Z,100.00
2022-12-15T11:46:09.425Z,100.00
2022-12-15T11:48:47.168Z,100.00
2022-12-15T11:51:23.791Z,100.00
2022-12-15T11:54:24.335Z,100.00
2022-12-15T11:56:56.605Z,100.00
2022-12-15T11:59:25.942Z,100.00
2022-12-15T12:02:11.028Z,100.00
2022-12-15T12:04:59.382Z,100.00
2022-12-15T12:07:25.943Z,100.00
2022-12-15T12:10:23.481Z,100.00
2022-12-15T12:13:00.682Z,100.00
2022-12-15T12:15:43.534Z,100.00
2022-12-15T12:18:22.629Z,100.00
2022-12-15T12:21:14.728Z,100.00
2022-12-15T12:23:53.350Z,100.00
2022-12-15T12:26:26.982Z,100.00
2022-12-15T12:28:59.236Z,100.00
2022-12-15T12:31:37.972Z,100.00
2022-12-15T12:34:14.177Z,100.00
2022-12-15T12:36:43.868Z,100.00
2022-12-15T12:39:20.244Z,100.00
2022-12-15T12:41:58.176Z,100.00
2022-12-15T12:44:37.069Z,100.00
2022-12-15T12:47:15.121Z,100.00
2022-12-15T12:49:50.436Z,100.00
2022-12-15T12:52:27.821Z,100.00
2022-12-15T12:55:14.517Z,100.00
2022-12-15T12:57:42.955Z,100.00
2022-12-15T13:00:29.538Z,100.00
2022-12-15T13:03:09.061Z,100.00
2022-12-15T13:05:38.578Z,100.00
2022-12-15T13:08:10.948Z,100.00
2022-12-15T13:10:39.941Z,100.00
2022-12-15T13:13:35.513Z,100.00
2022-12-15T13:16:10.700Z,100.00
2022-12-15T13:18:55.831Z,100.00
2022-12-15T13:21:53.552Z,100.00
2022-12-15T13:24:27.914Z,100.00
2022-12-15T13:27:09.937Z,100.00
2022-12-15T13:29:37.565Z,100.00
2022-12-15T13:32:04.232Z,100.00
2022-12-15T13:34:38.930Z,100.00
2022-12-15T13:37:26.044Z,100.00
2022-12-15T13:39:56.111Z,99.83
2022-12-15T13:42:40.233Z,100.00
2022-12-15T13:45:29.835Z,100.00
2022-12-15T13:47:56.589Z,100.00
2022-12-15T13:50:31.874Z,100.00
2022-12-15T13:53:19.910Z,100.00
2022-12-15T13:56:12.283Z,100.00
2022-12-15T13:58:47.821Z,100.00
2022-12-15T14:01:31.701Z,100.00
2022-12-15T14:04:12.487Z,100.00
2022-12-15T14:06:46.247Z,100.00
2022-12-15T14:09:15.594Z,100.00
2022-12-15T14:11:53.877Z,100.00
2022-12-15T14:14:28.988Z,100.00
2022-12-15T14:17:06.563Z,100.00
2022-12-15T14:19:51.145Z,100.00
2022-12-15T14:22:30.371Z,100.00
2022-12-15T14:25:17.067Z,100.00
2022-12-15T14:27:43.542Z,100.00
2022-12-15T14:30:15.817Z,100.00
2022-12-15T14:32:45.860Z,100.00
2022-12-15T14:35:17.871Z,100.00
2022-12-15T14:37:44.737Z,100.00
2022-12-15T14:40:16.915Z,100.00
2022-12-15T14:42:44.203Z,100.00
2022-12-15T14:45:31.615Z,100.00
2022-12-15T14:50:48.974Z,100.00
2022-12-15T14:53:23.378Z,100.00
2022-12-15T14:55:50.101Z,100.00
2022-12-15T14:58:34.619Z,100.00
2022-12-15T15:01:03.188Z,100.00
2022-12-15T15:03:40.813Z,100.00
2022-12-15T15:06:18.074Z,100.00
2022-12-15T15:08:50.213Z,100.00
2022-12-15T15:11:52.196Z,100.00
2022-12-15T15:14:25.555Z,100.00
2022-12-15T15:17:18.030Z,100.00
2022-12-15T15:20:01.682Z,100.00
2022-12-15T15:22:39.618Z,100.00
2022-12-15T15:25:48.240Z,100.00
2022-12-15T15:28:18.742Z,100.00
2022-12-15T15:30:48.297Z,100.00
2022-12-15T15:33:16.278Z,100.00
2022-12-15T15:35:46.913Z,100.00
2022-12-15T15:38:21.447Z,100.00
2022-12-15T15:40:53.155Z,100.00
2022-12-15T15:43:19.669Z,100.00
2022-12-15T15:45:48.428Z,100.00
2022-12-15T15:48:23.967Z,100.00
2022-12-15T15:50:50.673Z,100.00
2022-12-15T15:53:20.836Z,100.00
2022-12-15T15:55:50.392Z,100.00
2022-12-15T15:58:17.269Z,100.00
2022-12-15T16:00:43.794Z,100.00
2022-12-15T16:03:10.823Z,100.00
2022-12-15T16:05:38.235Z,100.00
2022-12-15T16:08:05.479Z,100.00
2022-12-15T16:10:32.350Z,100.00
2022-12-15T16:13:01.368Z,100.00
2022-12-15T16:15:34.648Z,100.00
2022-12-15T16:18:01.196Z,100.00
2022-12-15T16:20:29.780Z,100.00
2022-12-15T16:23:27.373Z,100.00
2022-12-15T16:25:58.981Z,100.00
2022-12-15T16:28:30.544Z,100.00
2022-12-15T16:31:01.389Z,100.00
2022-12-15T16:33:28.385Z,100.00
2022-12-15T16:35:54.952Z,100.00
2022-12-15T16:38:21.420Z,100.00
2022-12-15T16:40:47.957Z,100.00
2022-12-15T16:43:17.413Z,100.00
2022-12-15T16:45:45.720Z,100.00
2022-12-15T16:48:12.888Z,100.00
2022-12-15T16:50:46.119Z,100.00
2022-12-15T16:53:18.039Z,100.00
2022-12-15T16:55:48.445Z,100.00
2022-12-15T16:58:17.255Z,100.00
2022-12-15T17:00:44.886Z,100.00
2022-12-15T17:03:16.674Z,100.00
2022-12-15T17:05:48.159Z,100.00
2022-12-15T17:08:31.812Z,100.00
2022-12-15T17:10:58.605Z,100.00
2022-12-15T17:13:45.377Z,100.00
2022-12-15T17:16:14.639Z,100.00
2022-12-15T17:18:42.765Z,100.00
2022-12-15T17:21:15.009Z,100.00
2022-12-15T17:23:44.595Z,100.00
2022-12-15T17:26:27.948Z,100.00
2022-12-15T17:28:58.645Z,100.00
2022-12-15T17:31:30.307Z,100.00
2022-12-15T17:34:02.429Z,100.00
2022-12-15T17:36:29.032Z,100.00
2022-12-15T17:38:58.234Z,100.00
2022-12-15T17:41:57.593Z,100.00
2022-12-15T17:44:36.121Z,100.00
2022-12-15T17:47:05.865Z,100.00
2022-12-15T17:49:36.039Z,100.00
2022-12-15T17:52:07.306Z,100.00
2022-12-15T17:54:33.987Z,100.00
2022-12-15T17:57:00.524Z,100.00
2022-12-15T17:59:27.057Z,100.00
2022-12-15T18:01:57.076Z,100.00
2022-12-15T18:04:23.877Z,100.00
2022-12-15T18:06:51.994Z,100.00
2022-12-15T18:09:23.509Z,100.00
2022-12-15T18:11:49.991Z,100.00
2022-12-15T18:14:19.246Z,100.00
2022-12-15T18:16:46.434Z,100.00
2022-12-15T18:19:13.179Z,100.00
2022-12-15T18:21:43.731Z,100.00
2022-12-15T18:24:15.428Z,100.00
2022-12-15T18:26:41.891Z,100.00
2022-12-15T18:29:14.169Z,100.00
2022-12-15T18:31:42.110Z,100.00
2022-12-15T18:34:17.567Z,100.00
2022-12-15T18:36:44.960Z,100.00
2022-12-15T18:39:19.753Z,100.00
2022-12-15T18:41:46.862Z,100.00
2022-12-15T18:44:27.679Z,100.00
2022-12-15T18:46:55.235Z,100.00
2022-12-15T18:49:22.459Z,100.00
2022-12-15T18:51:49.315Z,100.00
2022-12-15T18:54:22.419Z,100.00
2022-12-15T18:56:49.393Z,100.00
2022-12-15T18:59:17.839Z,100.00
2022-12-15T19:01:46.727Z,100.00
2022-12-15T19:04:13.711Z,100.00
2022-12-15T19:06:41.001Z,100.00
2022-12-15T19:09:16.707Z,100.00
2022-12-15T19:12:07.277Z,100.00
2022-12-15T19:14:43.318Z,100.00
2022-12-15T19:17:54.655Z,100.00
2022-12-15T19:20:40.403Z,100.00
2022-12-15T19:23:07.419Z,100.00
2022-12-15T19:25:35.201Z,100.00
2022-12-15T19:28:01.790Z,100.00
2022-12-15T19:30:35.855Z,100.00
2022-12-15T19:33:05.042Z,100.00
2022-12-15T19:35:31.735Z,100.00
2022-12-15T19:38:01.735Z,100.00
2022-12-15T19:40:32.360Z,100.00
2022-12-15T19:43:00.418Z,100.00
2022-12-15T19:45:30.656Z,100.00
2022-12-15T19:47:58.089Z,100.00
2022-12-15T19:50:29.722Z,100.00
2022-12-15T19:53:01.674Z,100.00
2022-12-15T19:55:34.782Z,100.00
2022-12-15T19:58:19.952Z,100.00
2022-12-15T20:00:49.798Z,100.00
2022-12-15T20:03:20.652Z,100.00
2022-12-15T20:05:49.491Z,100.00
2022-12-15T20:08:21.059Z,100.00
2022-12-15T20:10:47.721Z,100.00
2022-12-15T20:13:14.702Z,100.00
2022-12-15T20:15:42.134Z,100.00
2022-12-15T20:18:09.556Z,100.00
2022-12-15T20:20:37.463Z,100.00
2022-12-15T20:23:14.295Z,100.00
2022-12-15T20:25:41.915Z,100.00
2022-12-15T20:28:21.639Z,100.00
2022-12-15T20:30:49.023Z,100.00
2022-12-15T20:33:16.500Z,100.00
2022-12-15T20:35:44.833Z,100.00
2022-12-15T20:38:30.415Z,100.00
2022-12-15T20:41:01.721Z,100.00
2022-12-15T20:43:39.244Z,100.00
2022-12-15T20:46:17.076Z,100.00
2022-12-15T20:48:44.796Z,100.00
2022-12-15T20:51:18.516Z,100.00
2022-12-15T20:53:45.148Z,100.00
2022-12-15T20:56:11.640Z,100.00
2022-12-15T20:58:41.197Z,100.00
2022-12-15T21:01:21.225Z,100.00
2022-12-15T21:03:54.173Z,100.00
2022-12-15T21:06:21.320Z,100.00
2022-12-15T21:08:47.987Z,100.00
2022-12-15T21:11:21.419Z,100.00
2022-12-15T21:13:49.380Z,100.00
2022-12-15T21:16:26.025Z,100.00
2022-12-15T21:21:45.899Z,100.00
2022-12-15T21:24:19.680Z,100.00
2022-12-15T21:26:46.999Z,100.00
2022-12-15T21:29:15.619Z,100.00
2022-12-15T21:31:42.461Z,100.00
2022-12-15T21:34:09.496Z,100.00
2022-12-15T21:36:37.920Z,100.00
2022-12-15T21:39:07.107Z,100.00
2022-12-15T21:41:34.163Z,100.00
2022-12-15T21:44:03.614Z,100.00
2022-12-15T21:46:30.980Z,100.00
2022-12-15T21:49:15.588Z,100.00
2022-12-15T21:51:45.078Z,100.00
2022-12-15T21:54:30.369Z,100.00
2022-12-15T21:56:58.429Z,100.00
2022-12-15T21:59:28.018Z,100.00
2022-12-15T22:02:07.756Z,100.00
2022-12-15T22:04:38.454Z,100.00
2022-12-15T22:07:06.455Z,100.00
2022-12-15T22:09:32.883Z,100.00
2022-12-15T22:11:59.383Z,100.00
2022-12-15T22:14:27.852Z,100.00
2022-12-15T22:16:58.632Z,100.00
2022-12-15T22:19:25.160Z,100.00
2022-12-15T22:21:52.320Z,100.00
2022-12-15T22:24:19.193Z,100.00
2022-12-15T22:26:47.198Z,100.00
2022-12-15T22:29:20.425Z,100.00
2022-12-15T22:31:47.607Z,100.00
2022-12-15T22:34:18.550Z,100.00
2022-12-15T22:36:45.498Z,100.00
2022-12-15T22:39:12.032Z,100.00
2022-12-15T22:41:40.798Z,100.00
2022-12-15T22:44:21.131Z,100.00
2022-12-15T22:46:49.201Z,100.00
2022-12-15T22:49:20.585Z,100.00
2022-12-15T22:51:47.693Z,100.00
2022-12-15T22:54:22.623Z,100.00
2022-12-15T22:56:55.105Z,100.00
2022-12-15T22:59:37.654Z,100.00
2022-12-15T23:02:05.115Z,100.00
2022-12-15T23:04:32.189Z,100.00
2022-12-15T23:07:02.020Z,100.00
2022-12-15T23:09:32.010Z,100.00
2022-12-15T23:11:59.202Z,100.00
2022-12-15T23:14:44.187Z,100.00
2022-12-15T23:17:12.348Z,100.00
2022-12-15T23:19:46.057Z,100.00
2022-12-15T23:22:13.807Z,100.00
2022-12-15T23:24:40.770Z,100.00
2022-12-15T23:27:11.388Z,100.00
2022-12-15T23:29:37.957Z,100.00
2022-12-15T23:32:07.973Z,100.00
2022-12-15T23:34:34.715Z,100.00
2022-12-15T23:37:01.244Z,100.00
2022-12-15T23:39:27.736Z,100.00
2022-12-15T23:41:54.187Z,100.00
2022-12-15T23:44:21.226Z,100.00
2022-12-15T23:46:47.785Z,100.00
2022-12-15T23:49:14.311Z,100.00
2022-12-15T23:51:40.762Z,100.00
2022-12-15T23:54:07.227Z,100.00
2022-12-15T23:56:33.708Z,100.00
2022-12-15T23:59:00.160Z,100.00
